McKees Rocks, Pennsylvania
Current Conditions -  °F | °C
As of 6:09 AM on Friday 28 Nov 2014 (Local Time) from KPIT Reporting Station
Broken Clouds Broken Clouds  
Wind Chill: 16°   Ceiling: 5000
Heat Index: 26°   Visibility: 10mi
Dew Point: 20°   Wind: 10mph
Humidity: 78%   Direction: 290°WNW
Pressure: 30.27"   Gusts: NA
Location:  40.4648°N, 80.1115°W
Report Text: KPIT 281109Z 29009KT 10SM FEW010 SCT038 BKN050 M03/M07 A3027 RMK AO2 SNE1052 P0000 T10331067
Loading
Personal Weather Stations






























Interactive Weather Map New forecast layout! Learn more

10-Day Weather Forecast

Advertisements
Track Severe Weather on mobile